Aérodrome :
LOGIN :

S'inscrire | Disclaimer

   EN    FR    IT 

 










Légende :    VFR   VFR Marginal   IFR   IFR Intensif   IFR Très Intensif
Visi : 
Plafond : 
>= 8 km
>= 3000ft
5 à 8 km
1000 à 3000 ft
1500m à 5 km
500 à 1000 ft
800 à 1500m
200 à 500 ft
< 800m
< 200 ft
Symboles :   Orages  Brouillard  Fortes neiges  Fortes précipitations  Vent > 20 kt
SIGMETs :   Divers  Orages  Givrage  Turbulence  Onde Orograph.  Cendres Volcan.






- Altitude de l'aérodrome : 325 ft
- Code IATA : BES


LFRB - Brest

DERNIER METAR :
  • 232130Z AUTO 06010KT 7000 NSC 04/03 Q1023 NOSIG

METARs EXPIRÉS :
  • 232100Z AUTO 05010KT 7000 NSC 05/03 Q1023 NOSIG
  • 232030Z AUTO 05010KT 7000 NSC 05/03 Q1023 NOSIG
  • 232000Z AUTO 05011KT 7000 NSC 05/03 Q1023 NOSIG
  • 231930Z AUTO 05011KT 7000 NSC 04/03 Q1023 NOSIG
  • 231900Z AUTO 05011KT 7000 NSC 05/03 Q1023 NOSIG

TAF TAF LFRB
Valide du 23 à 18h jusqu'au 25 à 00h UTC


231700Z 2318/2424 05011KT CAVOK
TEMPO 2400/2407 BKN005
BECMG 2418/2421 BKN004
ATIS : +33 2 98 32 02 71



MET'MAP, la Météo Aéronautique d'un coup d'oeil ! - Copyright ORBIFLY Décembre 2007 - Disclaimer

ORBIFLY MET'MAP TEAM :

Programmation & Développement : Alexandra Zaïnal
Sur une idée originale de : Baudouin d'Aumeries
Assistance à la programmation : Marc-Olivier Méhu
Soutien technique & logistique : Manuel Goepfert

Contact : metmap@orbifly.com




SOURCES & CREDITS :

   NOAA